createdAt,value
2022-12-11T00:00:38.994Z,-0.91
2022-12-11T00:05:42.308Z,-0.88
2022-12-11T00:10:50.364Z,-0.96
2022-12-11T00:15:51.991Z,-0.83
2022-12-11T00:20:53.722Z,-0.78
2022-12-11T00:25:55.395Z,-0.72
2022-12-11T00:30:56.997Z,-0.85
2022-12-11T00:35:58.763Z,-0.69
2022-12-11T00:41:00.397Z,-0.88
2022-12-11T00:46:02.426Z,-0.81
2022-12-11T00:51:04.451Z,-0.68
2022-12-11T00:56:10.721Z,-0.56
2022-12-11T01:01:16.113Z,-0.48
2022-12-11T01:06:21.079Z,-0.50
2022-12-11T01:11:22.655Z,-0.63
2022-12-11T01:16:24.263Z,-0.61
2022-12-11T01:21:26.154Z,-0.56
2022-12-11T01:26:27.885Z,-0.73
2022-12-11T01:31:29.589Z,-0.70
2022-12-11T01:36:31.194Z,-0.57
2022-12-11T01:41:32.991Z,-0.49
2022-12-11T01:46:36.321Z,-0.59
2022-12-11T01:52:01.519Z,-0.58
2022-12-11T01:57:06.706Z,-0.57
2022-12-11T02:02:22.640Z,-0.62
2022-12-11T02:07:24.357Z,-0.54
2022-12-11T02:12:47.694Z,-0.58
2022-12-11T02:18:15.014Z,-0.61
2022-12-11T02:23:32.765Z,-0.56
2022-12-11T02:29:09.946Z,-0.39
2022-12-11T02:34:39.837Z,-0.26
2022-12-11T02:39:44.438Z,-0.27
2022-12-11T02:44:48.816Z,-0.33
2022-12-11T02:49:52.067Z,-0.49
2022-12-11T02:54:58.109Z,-0.64
2022-12-11T02:59:59.960Z,-0.48
2022-12-11T03:05:01.611Z,-0.45
2022-12-11T03:10:06.354Z,-0.45
2022-12-11T03:15:13.961Z,-0.48
2022-12-11T03:20:51.179Z,-0.42
2022-12-11T03:25:59.509Z,-0.33
2022-12-11T03:31:07.680Z,-0.24
2022-12-11T03:36:21.011Z,-0.18
2022-12-11T03:41:25.390Z,-0.03
2022-12-11T03:46:33.470Z,-0.03
2022-12-11T03:51:36.408Z,0.01
2022-12-11T03:56:40.069Z,-0.10
2022-12-11T04:01:41.707Z,-0.09
2022-12-11T04:06:43.494Z,-0.02
2022-12-11T04:11:45.148Z,-0.03
2022-12-11T04:16:46.840Z,-0.04
2022-12-11T04:22:07.094Z,-0.16
2022-12-11T04:27:08.926Z,-0.12
2022-12-11T04:32:10.559Z,-0.15
2022-12-11T04:37:12.132Z,-0.13
2022-12-11T04:42:13.786Z,-0.12
2022-12-11T04:47:15.383Z,-0.11
2022-12-11T04:52:18.209Z,-0.05
2022-12-11T04:57:21.577Z,0.03
2022-12-11T05:02:23.308Z,-0.00
2022-12-11T05:07:24.918Z,-0.05
2022-12-11T05:12:26.520Z,-0.08
2022-12-11T05:17:28.125Z,-0.19
2022-12-11T05:22:31.658Z,-0.18
2022-12-11T05:27:33.952Z,-0.05
2022-12-11T05:32:35.662Z,-0.00
2022-12-11T05:37:37.751Z,-0.08
2022-12-11T05:42:39.345Z,-0.08
2022-12-11T05:47:41.025Z,-0.17
2022-12-11T05:52:42.604Z,-0.17
2022-12-11T05:57:44.702Z,-0.21
2022-12-11T06:02:46.437Z,-0.12
2022-12-11T06:07:48.148Z,-0.06
2022-12-11T06:12:49.778Z,-0.00
2022-12-11T06:17:51.383Z,0.05
2022-12-11T06:22:53.025Z,0.16
2022-12-11T06:27:55.004Z,0.15
2022-12-11T06:32:58.885Z,0.13
2022-12-11T06:38:00.559Z,0.12
2022-12-11T06:43:02.426Z,0.13
2022-12-11T06:48:04.589Z,0.13
2022-12-11T06:53:06.337Z,0.11
2022-12-11T06:58:08.892Z,0.15
2022-12-11T07:03:11.116Z,0.16
2022-12-11T07:08:15.153Z,0.19
2022-12-11T07:13:16.786Z,0.15
2022-12-11T07:18:18.429Z,0.12
2022-12-11T07:23:20.592Z,0.06
2022-12-11T07:28:22.605Z,0.05
2022-12-11T07:33:24.320Z,0.11
2022-12-11T07:38:25.980Z,0.06
2022-12-11T07:43:28.116Z,0.09
2022-12-11T07:48:35.996Z,0.16
2022-12-11T07:53:37.659Z,0.24
2022-12-11T07:58:39.404Z,0.30
2022-12-11T08:03:41.005Z,0.34
2022-12-11T08:08:43.139Z,0.34
2022-12-11T08:13:44.866Z,0.25
2022-12-11T08:18:48.239Z,0.35
2022-12-11T08:23:51.903Z,0.42
2022-12-11T08:28:54.185Z,0.43
2022-12-11T08:33:56.869Z,0.46
2022-12-11T08:38:59.042Z,0.43
2022-12-11T08:44:01.817Z,0.35
2022-12-11T08:49:03.586Z,0.51
2022-12-11T08:54:05.190Z,0.48
2022-12-11T08:59:06.885Z,0.67
2022-12-11T09:04:08.490Z,0.68
2022-12-11T09:09:10.079Z,0.74
2022-12-11T09:14:11.653Z,0.76
2022-12-11T09:19:14.475Z,0.74
2022-12-11T09:24:17.271Z,0.90
2022-12-11T09:29:18.923Z,0.97
2022-12-11T09:34:24.804Z,0.91
2022-12-11T09:39:30.784Z,0.84
2022-12-11T09:44:54.274Z,0.91
2022-12-11T09:50:10.466Z,0.92
2022-12-11T09:55:18.383Z,0.88
2022-12-11T10:00:32.127Z,0.98
2022-12-11T10:05:38.397Z,0.99
2022-12-11T10:10:44.309Z,1.15
2022-12-11T10:16:04.079Z,1.23
2022-12-11T10:21:06.207Z,1.15
2022-12-11T10:26:19.353Z,1.13
2022-12-11T10:31:41.298Z,1.14
2022-12-11T10:36:44.095Z,1.19
2022-12-11T10:41:48.842Z,1.25
2022-12-11T10:47:15.273Z,1.10
2022-12-11T10:52:25.923Z,1.28
2022-12-11T10:57:34.199Z,1.29
2022-12-11T11:02:38.748Z,1.33
2022-12-11T11:07:41.033Z,1.33
2022-12-11T11:12:42.698Z,1.36
2022-12-11T11:17:55.492Z,1.44
2022-12-11T11:23:01.805Z,1.41
2022-12-11T11:28:07.947Z,1.28
2022-12-11T11:33:17.712Z,1.35
2022-12-11T11:38:22.895Z,1.52
2022-12-11T11:43:51.603Z,1.38
2022-12-11T11:49:04.312Z,1.23
2022-12-11T11:54:34.802Z,1.26
2022-12-11T11:59:58.631Z,1.27
2022-12-11T12:05:00.364Z,1.25
2022-12-11T12:10:21.573Z,1.18
2022-12-11T12:15:46.977Z,1.25
2022-12-11T12:20:53.460Z,1.11
2022-12-11T12:26:07.099Z,1.21
2022-12-11T12:31:22.560Z,1.38
2022-12-11T12:36:42.721Z,1.43
2022-12-11T12:42:01.353Z,1.44
2022-12-11T12:47:14.904Z,1.47
2022-12-11T12:52:33.879Z,1.57
2022-12-11T12:57:37.161Z,1.67
2022-12-11T13:02:49.380Z,1.61
2022-12-11T13:07:55.687Z,1.33
2022-12-11T13:12:58.276Z,1.42
2022-12-11T13:18:01.899Z,1.44
2022-12-11T13:23:06.534Z,1.49
2022-12-11T13:28:31.335Z,1.66
2022-12-11T13:33:38.720Z,1.48
2022-12-11T13:38:49.304Z,1.52
2022-12-11T13:43:52.345Z,1.57
2022-12-11T13:49:00.922Z,1.63
2022-12-11T13:54:17.931Z,1.58
2022-12-11T13:59:32.347Z,1.47
2022-12-11T14:04:34.789Z,1.40
2022-12-11T14:09:43.569Z,1.45
2022-12-11T14:14:52.066Z,1.55
2022-12-11T14:19:56.231Z,1.63
2022-12-11T14:25:03.169Z,1.52
2022-12-11T14:30:12.499Z,1.48
2022-12-11T14:35:38.685Z,1.48
2022-12-11T14:40:44.429Z,1.50
2022-12-11T14:45:49.849Z,1.53
2022-12-11T14:50:58.441Z,1.51
2022-12-11T14:56:04.812Z,1.52
2022-12-11T15:01:20.907Z,1.51
2022-12-11T15:06:30.820Z,1.57
2022-12-11T15:11:32.894Z,1.64
2022-12-11T15:16:38.278Z,1.58
2022-12-11T15:21:40.034Z,1.47
2022-12-11T15:26:46.132Z,1.47
2022-12-11T15:31:58.436Z,1.43
2022-12-11T15:37:00.020Z,1.35
2022-12-11T15:42:02.533Z,1.33
2022-12-11T15:47:15.536Z,1.15
2022-12-11T15:52:18.475Z,1.12
2022-12-11T15:57:23.913Z,1.05
2022-12-11T16:02:28.003Z,1.04
2022-12-11T16:07:29.875Z,1.00
2022-12-11T16:12:31.566Z,0.95
2022-12-11T16:17:33.195Z,0.85
2022-12-11T16:22:34.834Z,0.71
2022-12-11T16:27:36.571Z,0.64
2022-12-11T16:32:38.235Z,0.71
2022-12-11T16:37:39.895Z,0.70
2022-12-11T16:42:41.599Z,0.66
2022-12-11T16:47:43.401Z,0.69
2022-12-11T16:52:45.686Z,0.50
2022-12-11T16:57:47.407Z,0.28
2022-12-11T17:02:49.114Z,0.25
2022-12-11T17:07:52.308Z,0.23
2022-12-11T17:12:54.122Z,0.26
2022-12-11T17:17:55.864Z,0.21
2022-12-11T17:22:57.511Z,0.30
2022-12-11T17:27:59.193Z,0.46
2022-12-11T17:33:02.849Z,0.52
2022-12-11T17:38:05.033Z,0.54
2022-12-11T17:43:10.437Z,0.69
2022-12-11T17:48:12.540Z,0.81
2022-12-11T17:53:16.848Z,0.82
2022-12-11T17:58:22.049Z,0.87
2022-12-11T18:03:25.419Z,0.92
2022-12-11T18:08:30.145Z,0.94
2022-12-11T18:13:32.626Z,0.93
2022-12-11T18:18:34.853Z,0.91
2022-12-11T18:23:36.492Z,0.63
2022-12-11T18:28:38.227Z,0.53
2022-12-11T18:33:42.139Z,0.47
2022-12-11T18:38:44.199Z,0.58
2022-12-11T18:43:45.977Z,0.61
2022-12-11T18:48:57.191Z,0.42
2022-12-11T18:54:00.216Z,0.16
2022-12-11T18:59:05.706Z,0.30
2022-12-11T19:04:10.954Z,0.47
2022-12-11T19:09:13.816Z,0.58
2022-12-11T19:14:15.765Z,0.51
2022-12-11T19:19:19.928Z,0.44
2022-12-11T19:24:24.947Z,0.37
2022-12-11T19:29:33.762Z,0.45
2022-12-11T19:34:35.536Z,0.56
2022-12-11T19:39:41.046Z,0.55
2022-12-11T19:44:43.522Z,0.46
2022-12-11T19:49:45.719Z,0.42
2022-12-11T19:54:47.318Z,0.46
2022-12-11T19:59:56.962Z,0.54
2022-12-11T20:04:59.386Z,0.56
2022-12-11T20:10:01.149Z,0.57
2022-12-11T20:15:05.113Z,0.43
2022-12-11T20:20:07.219Z,0.36
2022-12-11T20:25:09.732Z,0.27
2022-12-11T20:30:12.517Z,0.18
2022-12-11T20:35:14.444Z,0.02
2022-12-11T20:40:17.048Z,-0.44
2022-12-11T20:45:18.698Z,-0.45
2022-12-11T20:50:20.285Z,-0.20
2022-12-11T20:55:21.874Z,-0.17
2022-12-11T21:00:23.600Z,-0.03
2022-12-11T21:05:25.188Z,0.15
2022-12-11T21:10:26.774Z,0.27
2022-12-11T21:15:28.720Z,0.39
2022-12-11T21:20:30.324Z,0.42
2022-12-11T21:25:31.939Z,0.52
2022-12-11T21:30:33.632Z,0.44
2022-12-11T21:35:35.295Z,0.44
2022-12-11T21:40:36.920Z,0.48
2022-12-11T21:46:00.393Z,0.43
2022-12-11T21:51:12.396Z,0.34
2022-12-11T21:56:20.719Z,0.29
2022-12-11T22:01:30.724Z,0.35
2022-12-11T22:06:32.539Z,0.41
2022-12-11T22:11:35.346Z,0.42
2022-12-11T22:16:36.991Z,0.50
2022-12-11T22:21:38.658Z,0.54
2022-12-11T22:26:40.511Z,0.62
2022-12-11T22:31:42.173Z,0.69
2022-12-11T22:36:43.817Z,0.72
2022-12-11T22:41:45.566Z,0.71
2022-12-11T22:46:50.293Z,0.68
2022-12-11T22:51:52.393Z,0.65
2022-12-11T22:56:54.001Z,0.57
2022-12-11T23:01:55.652Z,0.53
2022-12-11T23:06:57.528Z,0.59
2022-12-11T23:11:59.157Z,0.65
2022-12-11T23:17:00.777Z,0.68
2022-12-11T23:22:03.102Z,0.69
2022-12-11T23:27:05.090Z,0.71
2022-12-11T23:32:06.737Z,0.74
2022-12-11T23:37:08.682Z,0.73
2022-12-11T23:42:10.286Z,0.70
2022-12-11T23:47:11.977Z,0.72
2022-12-11T23:52:13.657Z,0.72
2022-12-11T23:57:15.248Z,0.75
